sensor_id;sensor_type;location;lat;lon;timestamp;P1;durP1;ratioP1;P2;durP2;ratioP2
75311;SDS011;63906;55.686;37.532;2022-11-15T00:04:38;0.10;;;0.00;;
75311;SDS011;63906;55.686;37.532;2022-11-15T00:09:39;0.25;;;0.10;;
75311;SDS011;63906;55.686;37.532;2022-11-15T00:14:39;0.97;;;0.40;;
75311;SDS011;63906;55.686;37.532;2022-11-15T00:19:40;1.07;;;0.67;;
75311;SDS011;63906;55.686;37.532;2022-11-15T00:24:40;1.02;;;0.40;;
75311;SDS011;63906;55.686;37.532;2022-11-15T00:29:41;2.75;;;0.55;;
75311;SDS011;63906;55.686;37.532;2022-11-15T00:39:44;0.30;;;0.10;;
75311;SDS011;63906;55.686;37.532;2022-11-15T00:44:45;0.70;;;0.30;;
75311;SDS011;63906;55.686;37.532;2022-11-15T00:49:45;0.30;;;0.10;;
75311;SDS011;63906;55.686;37.532;2022-11-15T00:54:46;0.88;;;0.20;;
75311;SDS011;63906;55.686;37.532;2022-11-15T00:59:46;1.45;;;0.32;;
75311;SDS011;63906;55.686;37.532;2022-11-15T01:04:47;0.20;;;0.10;;
75311;SDS011;63906;55.686;37.532;2022-11-15T01:09:47;0.38;;;0.10;;
75311;SDS011;63906;55.686;37.532;2022-11-15T01:14:49;2.75;;;0.30;;
75311;SDS011;63906;55.686;37.532;2022-11-15T01:19:49;1.65;;;0.20;;
75311;SDS011;63906;55.686;37.532;2022-11-15T01:24:50;0.80;;;0.05;;
75311;SDS011;63906;55.686;37.532;2022-11-15T01:29:51;0.63;;;0.20;;
75311;SDS011;63906;55.686;37.532;2022-11-15T01:34:51;2.03;;;0.25;;
75311;SDS011;63906;55.686;37.532;2022-11-15T01:39:52;0.13;;;0.10;;
75311;SDS011;63906;55.686;37.532;2022-11-15T01:44:52;2.78;;;0.20;;
75311;SDS011;63906;55.686;37.532;2022-11-15T01:50:02;1.88;;;0.20;;
75311;SDS011;63906;55.686;37.532;2022-11-15T01:55:09;1.17;;;0.20;;
75311;SDS011;63906;55.686;37.532;2022-11-15T02:00:15;1.73;;;0.32;;
75311;SDS011;63906;55.686;37.532;2022-11-15T02:05:16;0.50;;;0.30;;
75311;SDS011;63906;55.686;37.532;2022-11-15T02:10:18;0.70;;;0.20;;
75311;SDS011;63906;55.686;37.532;2022-11-15T02:15:20;1.48;;;0.28;;
75311;SDS011;63906;55.686;37.532;2022-11-15T02:37:31;1.95;;;0.40;;
75311;SDS011;63906;55.686;37.532;2022-11-15T02:47:29;0.10;;;0.10;;
75311;SDS011;63906;55.686;37.532;2022-11-15T02:52:34;0.28;;;0.15;;
75311;SDS011;63906;55.686;37.532;2022-11-15T02:58:00;1.80;;;0.45;;
75311;SDS011;63906;55.686;37.532;2022-11-15T03:24:46;0.45;;;0.28;;
75311;SDS011;63906;55.686;37.532;2022-11-15T03:29:51;0.05;;;0.05;;
75311;SDS011;63906;55.686;37.532;2022-11-15T03:40:02;3.50;;;0.45;;
75311;SDS011;63906;55.686;37.532;2022-11-15T03:45:17;1.88;;;0.63;;
75311;SDS011;63906;55.686;37.532;2022-11-15T03:50:23;2.10;;;0.43;;
75311;SDS011;63906;55.686;37.532;2022-11-15T03:55:24;1.67;;;0.30;;
75311;SDS011;63906;55.686;37.532;2022-11-15T04:00:25;0.90;;;0.30;;
75311;SDS011;63906;55.686;37.532;2022-11-15T04:05:26;0.20;;;0.20;;
75311;SDS011;63906;55.686;37.532;2022-11-15T04:10:27;0.33;;;0.33;;
75311;SDS011;63906;55.686;37.532;2022-11-15T04:15:27;0.30;;;0.20;;
75311;SDS011;63906;55.686;37.532;2022-11-15T04:20:29;0.90;;;0.28;;
75311;SDS011;63906;55.686;37.532;2022-11-15T04:25:50;0.10;;;0.08;;
75311;SDS011;63906;55.686;37.532;2022-11-15T04:31:11;0.60;;;0.20;;
75311;SDS011;63906;55.686;37.532;2022-11-15T04:36:30;0.00;;;0.00;;
75311;SDS011;63906;55.686;37.532;2022-11-15T04:42:08;1.50;;;0.45;;
75311;SDS011;63906;55.686;37.532;2022-11-15T04:47:27;0.20;;;0.20;;
75311;SDS011;63906;55.686;37.532;2022-11-15T04:52:29;1.58;;;0.43;;
75311;SDS011;63906;55.686;37.532;2022-11-15T04:57:29;0.40;;;0.40;;
75311;SDS011;63906;55.686;37.532;2022-11-15T05:02:30;1.50;;;0.40;;
75311;SDS011;63906;55.686;37.532;2022-11-15T05:07:50;0.85;;;0.10;;
75311;SDS011;63906;55.686;37.532;2022-11-15T05:12:51;1.67;;;0.50;;
75311;SDS011;63906;55.686;37.532;2022-11-15T05:17:56;3.53;;;0.40;;
75311;SDS011;63906;55.686;37.532;2022-11-15T05:22:58;0.22;;;0.10;;
75311;SDS011;63906;55.686;37.532;2022-11-15T05:27:58;1.90;;;0.47;;
75311;SDS011;63906;55.686;37.532;2022-11-15T05:32:59;2.65;;;0.50;;
75311;SDS011;63906;55.686;37.532;2022-11-15T05:38:00;1.25;;;0.52;;
75311;SDS011;63906;55.686;37.532;2022-11-15T05:43:01;0.73;;;0.30;;
75311;SDS011;63906;55.686;37.532;2022-11-15T05:48:05;2.45;;;0.70;;
75311;SDS011;63906;55.686;37.532;2022-11-15T05:53:07;0.50;;;0.40;;
75311;SDS011;63906;55.686;37.532;2022-11-15T05:58:10;4.28;;;0.80;;
75311;SDS011;63906;55.686;37.532;2022-11-15T06:03:11;1.77;;;1.15;;
75311;SDS011;63906;55.686;37.532;2022-11-15T06:08:11;1.65;;;0.35;;
75311;SDS011;63906;55.686;37.532;2022-11-15T06:13:12;3.42;;;0.47;;
75311;SDS011;63906;55.686;37.532;2022-11-15T06:18:12;1.03;;;0.43;;
75311;SDS011;63906;55.686;37.532;2022-11-15T06:23:13;0.50;;;0.47;;
75311;SDS011;63906;55.686;37.532;2022-11-15T06:28:13;1.42;;;0.52;;
75311;SDS011;63906;55.686;37.532;2022-11-15T06:33:14;1.73;;;0.63;;
75311;SDS011;63906;55.686;37.532;2022-11-15T06:38:14;1.00;;;0.47;;
75311;SDS011;63906;55.686;37.532;2022-11-15T06:43:15;1.60;;;0.53;;
75311;SDS011;63906;55.686;37.532;2022-11-15T06:48:15;3.08;;;0.70;;
75311;SDS011;63906;55.686;37.532;2022-11-15T06:53:16;2.30;;;0.65;;
75311;SDS011;63906;55.686;37.532;2022-11-15T06:58:16;3.43;;;0.70;;
75311;SDS011;63906;55.686;37.532;2022-11-15T07:03:17;1.02;;;0.40;;
75311;SDS011;63906;55.686;37.532;2022-11-15T07:08:18;2.33;;;0.70;;
75311;SDS011;63906;55.686;37.532;2022-11-15T07:13:19;1.42;;;0.60;;
75311;SDS011;63906;55.686;37.532;2022-11-15T07:18:20;2.20;;;0.45;;
75311;SDS011;63906;55.686;37.532;2022-11-15T07:23:20;2.20;;;0.75;;
75311;SDS011;63906;55.686;37.532;2022-11-15T07:28:21;0.93;;;0.40;;
75311;SDS011;63906;55.686;37.532;2022-11-15T07:33:21;0.87;;;0.47;;
75311;SDS011;63906;55.686;37.532;2022-11-15T07:38:22;0.60;;;0.20;;
75311;SDS011;63906;55.686;37.532;2022-11-15T07:43:22;1.23;;;0.50;;
75311;SDS011;63906;55.686;37.532;2022-11-15T07:48:23;1.13;;;0.83;;
75311;SDS011;63906;55.686;37.532;2022-11-15T07:53:23;1.40;;;0.80;;
75311;SDS011;63906;55.686;37.532;2022-11-15T07:58:24;2.53;;;0.67;;
75311;SDS011;63906;55.686;37.532;2022-11-15T08:03:24;5.07;;;0.83;;
75311;SDS011;63906;55.686;37.532;2022-11-15T08:08:25;5.17;;;1.50;;
75311;SDS011;63906;55.686;37.532;2022-11-15T08:13:25;2.25;;;0.50;;
75311;SDS011;63906;55.686;37.532;2022-11-15T08:18:26;3.05;;;1.00;;
75311;SDS011;63906;55.686;37.532;2022-11-15T08:23:27;0.80;;;0.45;;
75311;SDS011;63906;55.686;37.532;2022-11-15T08:28:27;2.33;;;1.17;;
75311;SDS011;63906;55.686;37.532;2022-11-15T08:33:29;3.95;;;1.73;;
75311;SDS011;63906;55.686;37.532;2022-11-15T08:38:29;3.10;;;1.42;;
75311;SDS011;63906;55.686;37.532;2022-11-15T08:43:31;3.38;;;0.85;;
75311;SDS011;63906;55.686;37.532;2022-11-15T08:48:31;3.67;;;1.05;;
75311;SDS011;63906;55.686;37.532;2022-11-15T08:53:33;2.13;;;0.70;;
75311;SDS011;63906;55.686;37.532;2022-11-15T08:58:34;2.58;;;0.90;;
75311;SDS011;63906;55.686;37.532;2022-11-15T09:03:35;1.42;;;0.60;;
75311;SDS011;63906;55.686;37.532;2022-11-15T09:08:35;4.07;;;1.07;;
75311;SDS011;63906;55.686;37.532;2022-11-15T09:13:37;0.82;;;0.50;;
75311;SDS011;63906;55.686;37.532;2022-11-15T09:18:37;1.92;;;0.40;;
75311;SDS011;63906;55.686;37.532;2022-11-15T09:23:38;3.83;;;0.70;;
75311;SDS011;63906;55.686;37.532;2022-11-15T09:28:38;2.53;;;0.47;;
75311;SDS011;63906;55.686;37.532;2022-11-15T09:33:44;1.45;;;0.70;;
75311;SDS011;63906;55.686;37.532;2022-11-15T09:38:45;1.35;;;0.60;;
75311;SDS011;63906;55.686;37.532;2022-11-15T09:48:54;2.87;;;0.93;;
75311;SDS011;63906;55.686;37.532;2022-11-15T09:53:59;3.05;;;0.75;;
75311;SDS011;63906;55.686;37.532;2022-11-15T10:04:46;1.55;;;0.70;;
75311;SDS011;63906;55.686;37.532;2022-11-15T10:09:49;3.08;;;0.70;;
75311;SDS011;63906;55.686;37.532;2022-11-15T10:15:04;4.43;;;0.82;;
75311;SDS011;63906;55.686;37.532;2022-11-15T10:20:17;2.78;;;0.80;;
75311;SDS011;63906;55.686;37.532;2022-11-15T10:30:32;4.25;;;0.98;;
75311;SDS011;63906;55.686;37.532;2022-11-15T10:35:36;6.38;;;1.08;;
75311;SDS011;63906;55.686;37.532;2022-11-15T10:40:37;3.07;;;0.73;;
75311;SDS011;63906;55.686;37.532;2022-11-15T10:45:39;2.72;;;1.13;;
75311;SDS011;63906;55.686;37.532;2022-11-15T10:50:41;5.88;;;1.10;;
75311;SDS011;63906;55.686;37.532;2022-11-15T10:55:46;2.03;;;0.80;;
75311;SDS011;63906;55.686;37.532;2022-11-15T11:00:48;2.78;;;0.80;;
75311;SDS011;63906;55.686;37.532;2022-11-15T11:05:49;2.35;;;0.60;;
75311;SDS011;63906;55.686;37.532;2022-11-15T11:11:04;4.40;;;1.35;;
75311;SDS011;63906;55.686;37.532;2022-11-15T11:21:16;4.80;;;1.25;;
75311;SDS011;63906;55.686;37.532;2022-11-15T11:42:35;3.25;;;1.15;;
75311;SDS011;63906;55.686;37.532;2022-11-15T11:47:43;0.50;;;0.50;;
75311;SDS011;63906;55.686;37.532;2022-11-15T11:52:59;3.10;;;0.80;;
75311;SDS011;63906;55.686;37.532;2022-11-15T11:58:12;5.95;;;1.70;;
75311;SDS011;63906;55.686;37.532;2022-11-15T12:09:32;3.42;;;1.55;;
75311;SDS011;63906;55.686;37.532;2022-11-15T12:19:52;2.75;;;1.23;;
75311;SDS011;63906;55.686;37.532;2022-11-15T12:24:59;3.30;;;1.15;;
75311;SDS011;63906;55.686;37.532;2022-11-15T12:30:10;2.35;;;1.23;;
75311;SDS011;63906;55.686;37.532;2022-11-15T12:35:24;2.83;;;0.82;;
75311;SDS011;63906;55.686;37.532;2022-11-15T12:52:07;4.47;;;1.85;;
75311;SDS011;63906;55.686;37.532;2022-11-15T12:56:42;10.52;;;1.95;;
75311;SDS011;63906;55.686;37.532;2022-11-15T13:06:45;3.97;;;1.40;;
75311;SDS011;63906;55.686;37.532;2022-11-15T13:11:52;4.90;;;2.28;;
75311;SDS011;63906;55.686;37.532;2022-11-15T13:16:58;6.05;;;1.30;;
75311;SDS011;63906;55.686;37.532;2022-11-15T13:21:59;4.25;;;1.00;;
75311;SDS011;63906;55.686;37.532;2022-11-15T13:27:18;4.03;;;1.90;;
75311;SDS011;63906;55.686;37.532;2022-11-15T13:32:20;6.40;;;1.48;;
75311;SDS011;63906;55.686;37.532;2022-11-15T13:42:22;4.33;;;2.17;;
75311;SDS011;63906;55.686;37.532;2022-11-15T13:47:25;4.45;;;1.80;;
75311;SDS011;63906;55.686;37.532;2022-11-15T13:52:34;6.82;;;2.50;;
75311;SDS011;63906;55.686;37.532;2022-11-15T14:02:41;6.10;;;2.50;;
75311;SDS011;63906;55.686;37.532;2022-11-15T14:07:52;1.48;;;1.08;;
75311;SDS011;63906;55.686;37.532;2022-11-15T14:13:26;3.88;;;1.60;;
75311;SDS011;63906;55.686;37.532;2022-11-15T14:23:50;4.30;;;2.35;;
75311;SDS011;63906;55.686;37.532;2022-11-15T14:28:51;4.18;;;1.35;;
75311;SDS011;63906;55.686;37.532;2022-11-15T14:33:52;6.27;;;2.53;;
75311;SDS011;63906;55.686;37.532;2022-11-15T14:38:52;6.57;;;2.47;;
75311;SDS011;63906;55.686;37.532;2022-11-15T14:43:54;5.28;;;2.05;;
75311;SDS011;63906;55.686;37.532;2022-11-15T14:48:54;12.00;;;4.00;;
75311;SDS011;63906;55.686;37.532;2022-11-15T14:53:55;7.82;;;3.85;;
75311;SDS011;63906;55.686;37.532;2022-11-15T14:58:55;8.77;;;3.90;;
75311;SDS011;63906;55.686;37.532;2022-11-15T15:03:56;10.73;;;3.90;;
75311;SDS011;63906;55.686;37.532;2022-11-15T15:08:58;6.43;;;3.33;;
75311;SDS011;63906;55.686;37.532;2022-11-15T15:13:58;2.90;;;1.00;;
75311;SDS011;63906;55.686;37.532;2022-11-15T15:19:01;7.93;;;2.40;;
75311;SDS011;63906;55.686;37.532;2022-11-15T15:24:01;4.25;;;2.10;;
75311;SDS011;63906;55.686;37.532;2022-11-15T15:29:02;6.97;;;3.55;;
75311;SDS011;63906;55.686;37.532;2022-11-15T15:34:03;3.90;;;2.27;;
75311;SDS011;63906;55.686;37.532;2022-11-15T15:39:04;3.78;;;1.40;;
75311;SDS011;63906;55.686;37.532;2022-11-15T15:44:04;5.57;;;2.83;;
75311;SDS011;63906;55.686;37.532;2022-11-15T15:49:07;8.95;;;4.03;;
75311;SDS011;63906;55.686;37.532;2022-11-15T15:54:09;7.28;;;3.75;;
75311;SDS011;63906;55.686;37.532;2022-11-15T15:59:10;9.07;;;4.45;;
75311;SDS011;63906;55.686;37.532;2022-11-15T16:04:10;3.67;;;1.83;;
75311;SDS011;63906;55.686;37.532;2022-11-15T16:09:15;7.10;;;3.63;;
75311;SDS011;63906;55.686;37.532;2022-11-15T16:14:16;5.25;;;3.20;;
75311;SDS011;63906;55.686;37.532;2022-11-15T16:19:17;12.47;;;5.57;;
75311;SDS011;63906;55.686;37.532;2022-11-15T16:24:18;9.43;;;4.60;;
75311;SDS011;63906;55.686;37.532;2022-11-15T16:29:19;8.55;;;4.32;;
75311;SDS011;63906;55.686;37.532;2022-11-15T16:34:19;6.60;;;4.13;;
75311;SDS011;63906;55.686;37.532;2022-11-15T16:39:20;8.07;;;3.20;;
75311;SDS011;63906;55.686;37.532;2022-11-15T16:44:22;7.28;;;3.38;;
75311;SDS011;63906;55.686;37.532;2022-11-15T16:49:24;10.25;;;5.10;;
75311;SDS011;63906;55.686;37.532;2022-11-15T16:54:24;13.40;;;5.55;;
75311;SDS011;63906;55.686;37.532;2022-11-15T16:59:25;10.93;;;4.60;;
75311;SDS011;63906;55.686;37.532;2022-11-15T17:04:25;8.68;;;4.38;;
75311;SDS011;63906;55.686;37.532;2022-11-15T17:09:31;8.52;;;4.22;;
75311;SDS011;63906;55.686;37.532;2022-11-15T17:14:33;10.75;;;3.90;;
75311;SDS011;63906;55.686;37.532;2022-11-15T17:19:33;7.07;;;3.50;;
75311;SDS011;63906;55.686;37.532;2022-11-15T17:24:34;8.93;;;4.33;;
75311;SDS011;63906;55.686;37.532;2022-11-15T17:29:35;8.38;;;4.10;;
75311;SDS011;63906;55.686;37.532;2022-11-15T17:34:35;6.68;;;3.70;;
75311;SDS011;63906;55.686;37.532;2022-11-15T17:39:36;8.77;;;3.37;;
75311;SDS011;63906;55.686;37.532;2022-11-15T17:44:36;10.02;;;4.22;;
75311;SDS011;63906;55.686;37.532;2022-11-15T17:49:37;7.55;;;3.58;;
75311;SDS011;63906;55.686;37.532;2022-11-15T17:54:39;8.18;;;3.80;;
75311;SDS011;63906;55.686;37.532;2022-11-15T17:59:40;4.17;;;2.20;;
75311;SDS011;63906;55.686;37.532;2022-11-15T18:04:40;6.87;;;2.50;;
75311;SDS011;63906;55.686;37.532;2022-11-15T18:09:41;5.57;;;2.90;;
75311;SDS011;63906;55.686;37.532;2022-11-15T18:14:42;8.43;;;4.63;;
75311;SDS011;63906;55.686;37.532;2022-11-15T18:19:43;8.97;;;4.60;;
75311;SDS011;63906;55.686;37.532;2022-11-15T18:24:43;4.97;;;2.57;;
75311;SDS011;63906;55.686;37.532;2022-11-15T18:29:46;7.13;;;3.90;;
75311;SDS011;63906;55.686;37.532;2022-11-15T18:34:46;7.17;;;4.40;;
75311;SDS011;63906;55.686;37.532;2022-11-15T18:39:47;7.28;;;3.40;;
75311;SDS011;63906;55.686;37.532;2022-11-15T18:44:47;6.93;;;3.33;;
75311;SDS011;63906;55.686;37.532;2022-11-15T18:49:48;6.90;;;5.00;;
75311;SDS011;63906;55.686;37.532;2022-11-15T18:54:48;7.75;;;4.57;;
75311;SDS011;63906;55.686;37.532;2022-11-15T18:59:49;8.65;;;4.50;;
75311;SDS011;63906;55.686;37.532;2022-11-15T19:04:49;6.17;;;4.03;;
75311;SDS011;63906;55.686;37.532;2022-11-15T19:09:50;1.27;;;0.80;;
75311;SDS011;63906;55.686;37.532;2022-11-15T19:14:50;6.00;;;4.03;;
75311;SDS011;63906;55.686;37.532;2022-11-15T19:19:51;10.35;;;5.13;;
75311;SDS011;63906;55.686;37.532;2022-11-15T19:24:51;7.82;;;4.40;;
75311;SDS011;63906;55.686;37.532;2022-11-15T19:29:52;9.60;;;3.93;;
75311;SDS011;63906;55.686;37.532;2022-11-15T19:34:52;6.53;;;3.42;;
75311;SDS011;63906;55.686;37.532;2022-11-15T19:39:53;4.28;;;1.98;;
75311;SDS011;63906;55.686;37.532;2022-11-15T19:44:54;8.57;;;4.73;;
75311;SDS011;63906;55.686;37.532;2022-11-15T19:49:54;6.57;;;2.90;;
75311;SDS011;63906;55.686;37.532;2022-11-15T19:54:55;3.73;;;1.93;;
75311;SDS011;63906;55.686;37.532;2022-11-15T19:59:55;9.75;;;3.47;;
75311;SDS011;63906;55.686;37.532;2022-11-15T20:04:56;7.00;;;3.77;;
75311;SDS011;63906;55.686;37.532;2022-11-15T20:09:56;9.32;;;3.80;;
75311;SDS011;63906;55.686;37.532;2022-11-15T20:14:57;5.63;;;3.35;;
75311;SDS011;63906;55.686;37.532;2022-11-15T20:19:58;3.53;;;1.15;;
75311;SDS011;63906;55.686;37.532;2022-11-15T20:25:00;8.30;;;3.78;;
75311;SDS011;63906;55.686;37.532;2022-11-15T20:30:00;9.20;;;3.73;;
75311;SDS011;63906;55.686;37.532;2022-11-15T20:35:01;12.35;;;5.25;;
75311;SDS011;63906;55.686;37.532;2022-11-15T20:40:01;12.00;;;5.00;;
75311;SDS011;63906;55.686;37.532;2022-11-15T20:45:02;9.18;;;4.93;;
75311;SDS011;63906;55.686;37.532;2022-11-15T20:50:03;10.80;;;6.43;;
75311;SDS011;63906;55.686;37.532;2022-11-15T20:55:04;13.32;;;7.20;;
75311;SDS011;63906;55.686;37.532;2022-11-15T21:00:05;26.05;;;11.43;;
75311;SDS011;63906;55.686;37.532;2022-11-15T21:05:06;23.60;;;10.20;;
75311;SDS011;63906;55.686;37.532;2022-11-15T21:10:11;16.65;;;6.13;;
75311;SDS011;63906;55.686;37.532;2022-11-15T21:15:31;25.85;;;11.93;;
75311;SDS011;63906;55.686;37.532;2022-11-15T21:20:32;22.80;;;8.55;;
75311;SDS011;63906;55.686;37.532;2022-11-15T21:25:33;12.65;;;4.32;;
75311;SDS011;63906;55.686;37.532;2022-11-15T21:30:33;19.17;;;8.90;;
75311;SDS011;63906;55.686;37.532;2022-11-15T21:35:34;26.48;;;10.32;;
75311;SDS011;63906;55.686;37.532;2022-11-15T21:40:35;24.73;;;9.88;;
75311;SDS011;63906;55.686;37.532;2022-11-15T21:45:36;15.33;;;6.37;;
75311;SDS011;63906;55.686;37.532;2022-11-15T21:50:37;12.32;;;5.40;;
75311;SDS011;63906;55.686;37.532;2022-11-15T21:55:38;12.82;;;6.30;;
75311;SDS011;63906;55.686;37.532;2022-11-15T22:00:38;4.13;;;1.92;;
75311;SDS011;63906;55.686;37.532;2022-11-15T22:05:58;7.05;;;3.63;;
75311;SDS011;63906;55.686;37.532;2022-11-15T22:10:58;7.38;;;3.35;;
75311;SDS011;63906;55.686;37.532;2022-11-15T22:15:59;14.43;;;6.75;;
75311;SDS011;63906;55.686;37.532;2022-11-15T22:21:08;7.57;;;3.22;;
75311;SDS011;63906;55.686;37.532;2022-11-15T22:26:11;14.55;;;6.68;;
75311;SDS011;63906;55.686;37.532;2022-11-15T22:31:15;5.30;;;2.20;;
75311;SDS011;63906;55.686;37.532;2022-11-15T22:36:16;4.87;;;2.23;;
75311;SDS011;63906;55.686;37.532;2022-11-15T22:41:16;11.45;;;5.18;;
75311;SDS011;63906;55.686;37.532;2022-11-15T22:46:17;20.15;;;7.10;;
75311;SDS011;63906;55.686;37.532;2022-11-15T22:51:17;9.15;;;4.30;;
75311;SDS011;63906;55.686;37.532;2022-11-15T22:56:18;6.55;;;3.47;;
75311;SDS011;63906;55.686;37.532;2022-11-15T23:01:19;6.88;;;2.30;;
75311;SDS011;63906;55.686;37.532;2022-11-15T23:06:23;16.30;;;7.00;;
75311;SDS011;63906;55.686;37.532;2022-11-15T23:11:24;4.50;;;2.23;;
75311;SDS011;63906;55.686;37.532;2022-11-15T23:16:43;4.40;;;2.20;;
75311;SDS011;63906;55.686;37.532;2022-11-15T23:21:44;4.18;;;1.85;;
75311;SDS011;63906;55.686;37.532;2022-11-15T23:27:05;8.85;;;3.33;;
75311;SDS011;63906;55.686;37.532;2022-11-15T23:32:07;14.90;;;5.95;;
75311;SDS011;63906;55.686;37.532;2022-11-15T23:37:26;12.85;;;5.68;;
75311;SDS011;63906;55.686;37.532;2022-11-15T23:42:26;5.00;;;2.27;;
75311;SDS011;63906;55.686;37.532;2022-11-15T23:47:27;11.35;;;5.55;;
75311;SDS011;63906;55.686;37.532;2022-11-15T23:52:28;13.27;;;6.80;;
75311;SDS011;63906;55.686;37.532;2022-11-15T23:57:28;16.38;;;8.43;;
